Map

Track Data

SID SEASON NUMBER BASIN SUBBASIN NAME ISO_TIME NATURE LAT LON WMO_WIND WMO_PRES WMO_AGENCY TRACK_TYPE DIST2LAND LANDFALL IFLAG USA_AGENCY USA_ATCF_ID USA_LAT USA_LON USA_RECORD USA_STATUS USA_WIND USA_PRES USA_SSHS USA_R34_NE USA_R34_SE USA_R34_SW USA_R34_NW USA_R50_NE USA_R50_SE USA_R50_SW USA_R50_NW USA_R64_NE USA_R64_SE USA_R64_SW USA_R64_NW USA_POCI USA_ROCI USA_RMW USA_EYE TOKYO_LAT TOKYO_LON TOKYO_GRADE TOKYO_WIND TOKYO_PRES TOKYO_R50_DIR TOKYO_R50_LONG TOKYO_R50_SHORT TOKYO_R30_DIR TOKYO_R30_LONG TOKYO_R30_SHORT TOKYO_LAND CMA_LAT CMA_LON CMA_CAT CMA_WIND CMA_PRES HKO_LAT HKO_LON HKO_CAT HKO_WIND HKO_PRES NEWDELHI_LAT NEWDELHI_LON NEWDELHI_GRADE NEWDELHI_WIND NEWDELHI_PRES NEWDELHI_CI NEWDELHI_DP NEWDELHI_POCI REUNION_LAT REUNION_LON REUNION_TYPE REUNION_WIND REUNION_PRES REUNION_TNUM REUNION_CI REUNION_RMW REUNION_R34_NE REUNION_R34_SE REUNION_R34_SW REUNION_R34_NW REUNION_R50_NE REUNION_R50_SE REUNION_R50_SW REUNION_R50_NW REUNION_R64_NE REUNION_R64_SE REUNION_R64_SW REUNION_R64_NW BOM_LAT BOM_LON BOM_TYPE BOM_WIND BOM_PRES BOM_TNUM BOM_CI BOM_RMW BOM_R34_NE BOM_R34_SE BOM_R34_SW BOM_R34_NW BOM_R50_NE BOM_R50_SE BOM_R50_SW BOM_R50_NW BOM_R64_NE BOM_R64_SE BOM_R64_SW BOM_R64_NW BOM_ROCI BOM_POCI BOM_EYE BOM_POS_METHOD BOM_PRES_METHOD NADI_LAT NADI_LON NADI_CAT NADI_WIND NADI_PRES WELLINGTON_LAT WELLINGTON_LON WELLINGTON_WIND WELLINGTON_PRES DS824_LAT DS824_LON DS824_STAGE DS824_WIND DS824_PRES TD9636_LAT TD9636_LON TD9636_STAGE TD9636_WIND TD9636_PRES TD9635_LAT TD9635_LON TD9635_WIND TD9635_PRES TD9635_ROCI NEUMANN_LAT NEUMANN_LON NEUMANN_CLASS NEUMANN_WIND NEUMANN_PRES MLC_LAT MLC_LON MLC_CLASS MLC_WIND MLC_PRES USA_GUST BOM_GUST BOM_GUST_PER REUNION_GUST REUNION_GUST_PER USA_SEAHGT USA_SEARAD_NE USA_SEARAD_SE USA_SEARAD_SW USA_SEARAD_NW STORM_SPEED STORM_DIR
1992088S23215 1992 29 SP MM HETTIE 1992-03-27 12:00:00 NR -23.2000 -145.000 45 987 wellington spur-other 3048 3048 ________O_____ -1 -23.2000 -145.000 45 987 11 153
1992088S23215 1992 29 SP MM HETTIE 1992-03-27 15:00:00 NR -23.6774 -144.743 spur-other 3092 3092 ________P_____ -1 -23.7258 -144.701 45 987 11 155
1992088S23215 1992 29 SP MM HETTIE 1992-03-27 18:00:00 NR -24.2000 -144.500 45 987 wellington spur-other 3128 3128 ________O_____ -1 -24.2000 -144.500 45 987 10 161
1992088S23215 1992 29 SP MM HETTIE 1992-03-27 21:00:00 NR -24.5982 -144.398 spur-other 3150 3150 ________P_____ -1 -24.5982 -144.398 42 988 9 150
1992088S23215 1992 29 SP MM HETTIE 1992-03-28 00:00:00 NR -25.0000 -144.000 40 990 wellington spur-other 3202 3202 ________O_____ -1 -25.0000 -144.000 40 990 16 122
1992088S23215 1992 29 SP MM HETTIE 1992-03-28 03:00:00 NR -25.4726 -142.863 spur-other 3325 3325 ________P_____ -1 -25.4726 -142.863 40 990 25 114
1992088S23215 1992 29 SP MM HETTIE 1992-03-28 06:00:00 NR -26.0000 -141.500 40 990 wellington spur-other 3475 3475 ________O_____ -1 -26.0000 -141.500 40 990 24 118
1992088S23215 1992 29 SP MM HETTIE 1992-03-28 09:00:00 NR -26.5984 -140.462 spur-other 3590 3590 ________P_____ -1 -26.5984 -140.462 40 990 22 124
1992088S23215 1992 29 SP MM HETTIE 1992-03-28 12:00:00 NR -27.2000 -139.500 40 990 wellington spur-other 3704 3704 ________O_____ -1 -27.2000 -139.500 40 990 21 122
1992088S23215 1992 29 SP MM HETTIE 1992-03-28 15:00:00 NR -27.7300 -138.462 spur-other 3815 3815 ________P_____ -1 -27.7300 -138.462 40 990 20 119
1992088S23215 1992 29 SP MM HETTIE 1992-03-28 18:00:00 NR -28.2000 -137.500 40 990 wellington spur-other 3925 3925 ________O_____ -1 -28.2000 -137.500 40 990 17 121
1992088S23215 1992 29 SP MM HETTIE 1992-03-28 21:00:00 NR -28.5958 -136.844 spur-other 4003 4003 ________P_____ -1 -28.5958 -136.844 40 990 15 121
1992088S23215 1992 29 SP MM HETTIE 1992-03-29 00:00:00 NR -29.0000 -136.000 40 990 wellington spur-other 4091 4091 ________O_____ -1 -29.0000 -136.000 40 990 23 114
1992088S23215 1992 29 SP MM HETTIE 1992-03-29 03:00:00 NR -29.5248 -134.480 spur-other 4246 4246 ________P_____ -1 -29.5248 -134.480 37 992 30 109
1992088S23215 1992 29 SP MM HETTIE 1992-03-29 06:00:00 NR -30.0000 -132.700 35 995 wellington spur-other 4428 4428 ________O_____ -1 -30.0000 -132.700 35 995 29 101
1992088S23215 1992 29 SP MM HETTIE 1992-03-29 09:00:00 NR -30.0924 -131.210 spur-other 4570 4570 ________P_____ -1 -30.0924 -131.210 32 996 28 100
1992088S23215 1992 29 SP MM HETTIE 1992-03-29 12:00:00 NR -30.5000 -129.500 30 997 wellington spur-other 4739 4603 ________O_____ -1 -30.5000 -129.500 30 997 39 117
1992088S23215 1992 29 SP MM HETTIE 1992-03-29 15:00:00 NR -31.8549 -127.111 spur-other 4592 4333 ________P_____ -1 -31.8549 -127.111 30 997 52 125
1992088S23215 1992 29 SP MM HETTIE 1992-03-29 18:00:00 NR -33.5000 -124.500 30 997 wellington spur-other 4319 4071 ________O_____ -1 -33.5000 -124.500 30 997 51 126
1992088S23215 1992 29 SP MM HETTIE 1992-03-29 21:00:00 NR -34.8634 -122.156 spur-other 4057 3837 ________P_____ -1 -34.8634 -122.156 30 997 45 124
1992088S23215 1992 29 SP MM HETTIE 1992-03-30 00:00:00 NR -36.0000 -120.000 30 997 wellington spur-other 3823 ________O_____ -1 -36.0000 -120.000 30 997 42 123

Digital Typhoon Data and Search

About IBTrACS Database

This database is a web-friendly format of International Best Track Archive for Climate Stewardship (IBTrACS), a global best track data archive curated by NOAA dating back to 1842.

Updated: 2021-11-26